Aérodrome :
LOGIN :

S'inscrire | Disclaimer

   EN    FR    IT 

 










Légende :    VFR   VFR Marginal   IFR   IFR Intensif   IFR Très Intensif
Visi : 
Plafond : 
>= 8 km
>= 3000ft
5 à 8 km
1000 à 3000 ft
1500m à 5 km
500 à 1000 ft
800 à 1500m
200 à 500 ft
< 800m
< 200 ft
Symboles :   Orages  Brouillard  Fortes neiges  Fortes précipitations  Vent > 20 kt
SIGMETs :   Divers  Orages  Givrage  Turbulence  Onde Orograph.  Cendres Volcan.






- Altitude de l'aérodrome : 1791 ft
- Code IATA : AOT


LIMW - Aosta

DERNIER METAR :
  • 160550Z AUTO VRB02KT 9999 SCT005https://selfbriefing.enav.it/cvpn/1yo/ SCT077https://selfbriefing.enav.it/cvpn/1yo/ BKN089https://selfbriefing.enav.it/cvpn/1yo/ 08/08 Q1009

METARs EXPIRÉS :
  • 160520Z 20001KT 9999 FEW048https://selfbriefing.enav.it/cvpn/1yo/ BKN084https://selfbriefing.enav.it/cvpn/1yo/ 08/08 Q1009
  • 160420Z AUTO 13003KT 9999 -RA FEW022https://selfbriefing.enav.it/cvpn/uSw/ SCT072https://selfbriefing.enav.it/cvpn/uSw/ BKN084https://selfbriefing.enav.it/cvpn/uSw/ 07/07 Q1009
  • 160350Z AUTO 18002KT 9999 FEW006https://selfbriefing.enav.it/cvpn/pt0/ 07/07 Q1009

Prévision TAF périmée.



MET'MAP, la Météo Aéronautique d'un coup d'oeil ! - Copyright ORBIFLY Décembre 2007 - Disclaimer

ORBIFLY MET'MAP TEAM :

Programmation & Développement : Alexandra Zaïnal
Sur une idée originale de : Baudouin d'Aumeries
Assistance à la programmation : Marc-Olivier Méhu
Soutien technique & logistique : Manuel Goepfert

Contact : metmap@orbifly.com




SOURCES & CREDITS :

   NOAA